x

9410840 - Santa Monica Pier (icac1) Weather Station

9:54 - Wed 2nd Sep 2015 All times are PDT. -7 hours from GMT.

  • Wind
    8mph, 9mph gusts
  • Sea Temp 73°f
  • Aire Temp 69°f
  • Sea Pressure 1015.3mb
  • 9410840 - Santa Monica Pier
  • 9410840 - Santa Monica Pier

More Historic Weather Station data

Upgrade to MSW Pro to gain access to the past 30 days of data for over 8000 Wavebouys and Weather Stations around the globe.

Join Pro

Comparision Forecast

View Surf forecast
   
mié 09/02 9:54 8 9 mph 1015.3mb 73f 69f
9:48 8 9 mph 1015.3mb 73f 69f
9:42 7 9 mph 1015.3mb 73f 69f
9:36 8 10 mph 1015.3mb 73f 69f
9:30 8 9 mph 1015.3mb 73f 69f
9:24 8
mph
1015.2mb 73f 69f
9:18 7 8 mph 1015.2mb 73f 69f
9:12 7 8 mph 1015.2mb 73f 69f
9:06 7 8 mph 1015.3mb 73f 69f
9:00 7 8 mph 1015.2mb 73f 69f
8:54 7 9 mph 1015.2mb 73f 69f
8:48 8 10 mph 1015.2mb 73f 69f
8:42 9 10 mph 1015.2mb 73f 69f
8:36 8 10 mph 1015.1mb 73f 69f
8:30 9
mph
1015.2mb 73f 69f
8:24 8 10 mph 1015.1mb 73f 70f
8:18 8 9 mph 1015.1mb 73f 70f
8:12 6 7 mph 1015.1mb 73f 70f
8:06 7 8 mph 1015.1mb 73f 70f
8:00 7 8 mph 1015.1mb 73f 70f
7:54 6 7 mph 1015.2mb 73f 70f
7:48 6 8 mph 1015.1mb 73f 70f
7:42 6 7 mph 1015.1mb 73f 70f
7:36 6 7 mph 1015.1mb 73f 70f
7:30 7 8 mph 1015mb 73f 70f
7:24 8 9 mph 1015.1mb 73f 70f
7:18 8 9 mph 1015.1mb 73f -
7:12 6 8 mph 1015.1mb 73f -
7:06 7 9 mph 1015mb 73f -
7:00 7 8 mph 1014.9mb 73f 70f
6:54 6 7 mph 1014.8mb 73f 70f
6:48 5 7 mph 1014.8mb 73f 70f
6:42 7 9 mph 1014.8mb 73f 70f
6:36 7
mph
1014.7mb 73f 70f
6:30 6 8 mph 1014.6mb 73f 70f
6:24 7 8 mph 1014.6mb 73f 70f
6:18 6 8 mph 1014.5mb 73f 70f
6:12 6 7 mph 1014.6mb 73f 70f
6:06 6 8 mph 1014.5mb 73f 70f
6:00 7 9 mph 1014.5mb 73f 70f
5:54 7 9 mph 1014.5mb 73f 70f
5:48 5 9 mph 1014.5mb 73f 70f
5:42 8 9 mph 1014.4mb 73f 70f
5:36 8 9 mph 1014.4mb 73f 70f
5:30 7 8 mph 1014.3mb 73f 70f
5:24 6 9 mph 1014.3mb 73f 70f
5:18 7 9 mph 1014.3mb 73f 70f
5:12 8 9 mph 1014.2mb 73f 69f
5:06 8 10 mph 1014.2mb 73f 70f
5:00 8 9 mph 1014.2mb 73f 69f
4:54 8 10 mph 1014.2mb 73f 70f
4:48 8 10 mph 1014.2mb 73f 70f
4:42 8 9 mph 1014.2mb 73f 70f
4:36 7 8 mph 1014.1mb 73f 69f
4:30 5
mph
1014.1mb 73f 69f
4:24 2 5 mph 1014mb 73f 69f
4:18 3 5 mph 1014mb 73f 69f
4:12 5
mph
1014.1mb 73f 69f
4:06 3 5 mph 1014mb 73f 69f
4:00 2 3 mph 1014mb 73f 69f
3:54 2 6 mph 1014mb 73f 69f
3:48 2 3 mph 1014mb 73f 69f
3:42 2 3 mph 1014mb 73f 69f
3:36  -  1 mph 1013.9mb 73f 69f
3:30  -  1 mph 1014mb 73f 69f
3:24  -  1 mph 1014mb 73f 69f
3:18  -  mph 1014mb 73f 69f
3:12  -  1 mph 1014.2mb 73f 69f
3:06  -  1 mph 1014.2mb 73f 69f
3:00  -  mph 1014.2mb 73f 69f
2:54  -  1 mph 1014.3mb 73f 69f
2:48  -  1 mph 1014.3mb 73f 69f
2:42  -  1 mph 1014.3mb 73f 69f
2:36  -  1 mph 1014.3mb 73f 69f
2:30  -  1 mph 1014.4mb 73f 69f
2:24  -  2 mph 1014.4mb 73f 69f
2:18 1 2 mph 1014.4mb 73f 69f
2:12  -  1 mph 1014.5mb 73f 69f
2:06  -  2 mph 1014.4mb 73f 69f
2:00 1 2 mph 1014.5mb 73f 69f
1:54 1 2 mph 1014.5mb 73f 69f
1:48 1 2 mph 1014.5mb 73f 69f
1:42  -  1 mph 1014.5mb 73f 69f
1:36 1 2 mph 1014.6mb 73f 69f
1:30 1 2 mph 1014.6mb 73f 69f
1:24  -  1 mph 1014.6mb 73f 69f
1:18  -  2 mph 1014.6mb 73f 69f
1:12 1 2 mph 1014.7mb 73f 69f
1:06 2 3 mph 1014.8mb 73f 69f
1:00 1 3 mph 1014.7mb 73f 69f
12:54 2 3 mph 1014.8mb 73f 69f
12:48 2 5 mph 1014.8mb 73f 69f
12:42 3 5 mph 1014.8mb 73f 69f
12:36 5 6 mph 1014.8mb 73f 69f
12:30 5 6 mph 1014.8mb 73f 69f
12:24 5 6 mph 1014.8mb 73f 69f
12:18 6
mph
1014.8mb 73f 69f
12:12 6 7 mph 1014.7mb 73f 69f
12:06 5 6 mph 1014.6mb 73f 69f
12:00 6 7 mph 1014.6mb 73f 69f
mar 09/01 11:54 6 8 mph 1014.6mb 73f 69f
11:48 5 6 mph 1014.6mb 73f 69f
11:42 6 7 mph 1014.6mb 73f 69f
11:36 5 7 mph 1014.6mb 73f 69f
11:30 6 7 mph 1014.6mb 73f 69f
11:24 7 9 mph 1014.5mb 73f 69f
11:18 7 8 mph 1014.6mb 73f -
11:12 6 7 mph 1014.4mb 73f -
11:06 5 7 mph 1014.3mb 73f -
11:00 5 7 mph 1014.3mb 74f 69f
10:54 5 6 mph 1014.3mb 74f 69f
10:48 5 6 mph 1014.2mb 74f 69f
10:42 6
mph
1014.3mb 74f 69f
10:36 5 6 mph 1014.2mb 74f 69f
10:30 6
mph
1014.2mb 73f 69f
10:24 6 7 mph 1014.2mb 73f 69f
10:18 5 7 mph 1014.2mb 73f 69f
10:12 5 7 mph 1014.3mb 74f 69f
10:06 6 7 mph 1014.2mb 74f 69f
10:00 6 7 mph 1014.2mb 74f 69f
9:54 5 6 mph 1014.1mb 74f 69f
9:48 6 7 mph 1014mb 74f 69f
9:42 7 8 mph 1014.1mb 74f 69f
9:36 7 9 mph 1014.2mb 74f 69f
9:30 8 9 mph 1014.2mb 74f 69f
9:24 8 9 mph 1014.1mb 74f 69f
9:18 8 10 mph 1014.1mb 74f 69f
9:12 9 11 mph 1014.2mb 74f 69f
9:06 9 11 mph 1014.2mb 74f 69f
9:00 10 13 mph 1014.1mb 74f 69f
8:54 10 11 mph 1014mb 74f 69f
8:48 9 11 mph 1013.9mb 74f 69f
8:42 10 11 mph 1013.8mb 74f 69f
8:36 9 11 mph 1013.7mb 74f 69f
8:30 9 11 mph 1013.6mb 74f 70f
8:24 10 11 mph 1013.5mb 74f 70f
8:18 10 11 mph 1013.4mb 74f 69f
8:12 9 11 mph 1013.2mb 74f 70f
8:06 8 10 mph 1013.1mb 74f 69f
8:00 9 10 mph 1013.1mb 74f 70f
7:54 10 11 mph 1013mb 74f 69f
7:48 10 11 mph 1013mb 74f 70f
7:42 9 11 mph 1012.9mb 74f 70f
7:36 9 10 mph 1012.9mb 74f 70f
7:30 8 10 mph 1012.8mb 74f 70f
7:24 10
mph
1012.8mb 74f 70f
7:18 9 10 mph 1012.7mb 74f 70f
7:12 9 10 mph 1012.7mb 74f 70f
7:06 9 10 mph 1012.6mb 74f 70f
7:00 8 9 mph 1012.6mb 74f 70f
6:54 7 9 mph 1012.5mb 74f 70f
6:48 8 9 mph 1012.5mb 74f 70f
6:42 9 10 mph 1012.5mb 74f 70f
6:36 8
mph
1012.4mb 74f 70f
6:30 7 10 mph 1012.3mb 74f 70f
6:24 8 10 mph 1012.4mb 74f 70f
6:18 9 10 mph 1012.4mb 74f 70f
6:12 9 10 mph 1012.3mb 74f 70f
6:06 9 10 mph 1012.2mb 74f 70f
6:00 10 11 mph 1012.3mb 74f 70f
5:54 10 11 mph 1012.3mb 74f 70f
5:48 11 13 mph 1012.4mb 74f 70f
5:42 10 11 mph 1012.4mb 74f 70f
5:36 9 11 mph 1012.2mb 74f 70f
5:30 10 11 mph 1012.2mb 74f 70f
5:24 10 11 mph 1012.2mb 74f 70f
5:18 10 13 mph 1012.2mb 74f 70f
5:12 10 13 mph 1012.3mb 74f 70f
5:06 10 11 mph 1012.3mb 74f 70f
5:00 11 13 mph 1012.2mb 74f 70f
4:54 11 13 mph 1012.3mb 74f 70f
4:48 13 14 mph 1012.3mb 74f 70f
4:42 13 14 mph 1012.2mb 74f 70f
4:36 11 13 mph 1012.2mb 74f 70f
4:30 11 13 mph 1012.2mb 74f 70f
4:24 13 14 mph 1012.2mb 74f 70f
4:18 11 13 mph 1012.3mb 74f 70f
4:12 11 14 mph 1012.3mb 74f 71f
4:06 11 14 mph 1012.3mb 74f 70f
4:00 11 14 mph 1012.3mb 74f 71f
3:54 11 14 mph 1012.3mb 74f 70f
3:48 11 13 mph 1012.4mb 74f 70f
3:42 11 14 mph 1012.4mb 74f 70f
3:36 11 14 mph 1012.4mb 74f 71f
3:30 11 13 mph 1012.5mb 74f 71f
3:24 13 14 mph 1012.5mb 74f 70f
3:18 11 13 mph 1012.6mb 74f 71f
3:12 10 13 mph 1012.6mb 74f 71f
3:06 11 13 mph 1012.7mb 74f 71f
3:00 11 14 mph 1012.7mb 74f 70f
2:54 13 14 mph 1012.8mb 74f 70f
2:48 11 14 mph 1012.9mb 74f 70f
2:42 11 13 mph 1012.9mb 74f 71f
2:36 11 13 mph 1012.9mb 74f 71f
2:30 9 11 mph 1012.9mb 74f 71f
2:24 9 13 mph 1013mb 74f 71f
2:18 10 13 mph 1013mb 74f 71f
2:12 11 13 mph 1013.1mb 73f 71f
2:06 11 13 mph 1013.1mb 73f 71f
2:00 11 13 mph 1013.2mb 73f 71f
1:54 11 13 mph 1013.1mb 73f 71f
1:48 10 11 mph 1013.1mb 73f 71f
1:42 9 10 mph 1013.1mb 73f 71f
1:36 10 11 mph 1013mb 73f 71f
1:30 9 10 mph 1013mb 73f 71f
1:24 9
mph
1013mb 73f 71f
1:18 7 8 mph 1013mb 73f 71f
1:12 7 8 mph 1013mb 73f 71f
1:06 7 9 mph 1013mb 73f 71f
1:00 8
mph
1013.1mb 73f 71f
12:54 8 9 mph 1013.2mb 73f 71f
12:48 8 9 mph 1013.3mb 73f 71f
12:42 7 8 mph 1013.4mb 73f 71f
12:36 8 9 mph 1013.4mb 73f 71f
12:30 8 10 mph 1013.5mb 73f 71f
12:24 9 10 mph 1013.6mb 73f 71f
12:18 8 10 mph 1013.7mb 73f 71f
12:12 8 9 mph 1013.8mb 73f 71f
12:06 8 9 mph 1013.8mb 73f 71f
12:00 8 10 mph 1013.9mb 73f 71f
11:54 9 10 mph 1013.9mb 73f 71f
11:48 9 10 mph 1013.9mb 73f 71f
11:42 9 11 mph 1013.9mb 73f 71f
11:36 10 13 mph 1014.1mb 73f 71f
11:30 11 14 mph 1014.1mb 73f 71f
11:24 13 14 mph 1014.1mb 73f 71f
11:18 11 13 mph 1014.1mb 72f 72f
11:12 11 13 mph 1014.1mb 72f 72f
11:06 10 11 mph 1014mb 72f 72f
11:00 10 13 mph 1014.1mb 72f 72f
10:54 11 13 mph 1014.1mb 72f 72f
10:48 8 10 mph 1014.1mb 73f 72f
10:42 8 9 mph 1014.1mb 73f 73f
10:36 5 7 mph 1014mb 73f 73f
10:30 8 11 mph 1013.9mb 73f 73f
10:24 9 10 mph 1014.1mb 73f 73f
10:18 8 10 mph 1014.1mb 73f 72f
10:12 7 9 mph 1014mb 72f 72f
10:06 8 9 mph 1014mb 72f 73f
10:00 7 14 mph 1014mb 72f 73f
9:54 10 13 mph 1014mb 72f 73f
9:48 10 14 mph 1013.9mb 72f 73f
9:42 9 13 mph 1013.8mb 72f 73f
9:36 7 13 mph 1013.7mb 72f 73f
9:30 8 13 mph 1013.7mb 72f 72f
9:24 6 7 mph 1013.7mb 72f 72f
9:18 7 8 mph 1013.7mb 72f -
9:12 8 10 mph 1013.6mb 72f -
9:06 8 10 mph 1013.6mb 72f -
9:00 8 10 mph 1013.6mb 72f 71f
8:54 9 11 mph 1013.5mb 72f 71f
8:48 5 7 mph - 72f 71f
8:42 6 8 mph - 72f 71f
8:36 7 9 mph - 72f 71f
8:30 7 8 mph 1013.4mb 72f 71f
8:24 8 9 mph 1013.4mb 72f 71f
8:18 8
mph
1013.5mb 72f 71f
8:12 7 8 mph 1013.5mb 72f 71f
8:06 7 8 mph 1013.5mb 72f 71f
8:00 7 9 mph 1013.5mb 72f 72f
7:54 6 7 mph 1013.6mb 72f 72f
7:48 7 9 mph 1013.6mb 72f 71f
7:42 7 9 mph 1013.5mb 72f 71f
7:36 8 9 mph 1013.3mb 72f 71f
7:30 8 9 mph 1013.2mb 72f 71f
7:24 6 8 mph 1013.2mb 72f 71f
7:18 7 8 mph 1013.2mb 72f 71f
7:12 7 9 mph 1013.1mb 72f 71f
7:06 6 8 mph 1013mb 72f 71f
7:00 6 8 mph 1013mb 72f 71f
6:54 5 7 mph 1013mb 72f 71f
6:48 3 6 mph 1013mb 72f 71f
6:42 3 6 mph 1013.1mb 72f 71f
6:36 6 8 mph 1013.1mb 72f 71f
6:30 7 11 mph 1013mb 72f 71f
6:24 9 10 mph 1012.9mb 72f 71f
6:18 8 10 mph 1012.8mb 72f 71f
6:12 6 7 mph 1012.7mb 72f 71f
6:06 5 6 mph 1012.7mb 72f 71f
6:00 3 6 mph 1012.7mb 72f 71f
5:54 5 6 mph 1012.6mb 72f 70f
5:48 3 6 mph 1012.5mb 72f 71f
5:42 5 6 mph 1012.6mb 73f 70f
5:36 2 3 mph 1012.6mb 73f 70f
5:30 2 3 mph 1012.6mb 73f 70f
5:24 2 3 mph 1012.6mb 73f 70f
5:18 2 3 mph 1012.7mb 73f 71f
5:12 3 5 mph 1012.6mb 73f 70f
5:06 3
mph
1012.6mb 73f 70f
5:00 2 3 mph 1012.6mb 73f 70f
4:54 3 5 mph 1012.6mb 73f 70f
4:48 5 6 mph 1012.7mb 73f 70f
4:42 6 8 mph 1012.7mb 73f 70f
4:36 8 9 mph 1012.6mb 73f 70f
4:30 8 9 mph 1012.6mb 73f 70f
4:24 9 10 mph 1012.7mb 73f 71f
4:18 9 10 mph 1012.7mb 73f 71f
4:12 9
mph
1012.7mb 73f 70f
4:06 8 10 mph 1012.6mb 73f 70f
4:00 10 11 mph 1012.7mb 73f 70f
3:54 8 10 mph 1012.6mb 73f 70f
3:48 8 15 mph 1012.7mb 73f 70f
3:42 11 14 mph 1012.6mb 73f 70f
3:36 10 11 mph 1012.5mb 73f 70f
3:30 9 10 mph - - 71f
3:24 8 11 mph - - 71f
3:18 8 11 mph 1012.4mb 73f 71f
3:12 10 14 mph 1012.4mb 73f 71f
3:06 10 13 mph 1012.4mb 73f 70f
3:00 7 9 mph 1012.5mb 73f 71f
2:54 3 6 mph 1012.5mb 73f 71f
2:48  -  mph 1012.5mb 73f 71f
2:42  -  mph 1012.5mb 73f 70f
2:36  -  mph 1012.5mb 73f 70f
2:30 1 2 mph 1012.5mb 73f 70f
2:24  -  1 mph 1012.5mb 73f 70f
2:18  -  2 mph 1012.4mb 73f 70f
2:12 2 5 mph 1012.5mb 73f 70f
2:06 5
mph
1012.6mb 73f 70f
2:00 5 6 mph 1012.6mb 73f 70f
1:54 5 6 mph 1012.6mb 73f 70f
1:48 5 7 mph 1012.6mb 73f 70f
1:42 6 7 mph 1012.7mb 73f 70f
1:36 6 8 mph 1012.8mb 73f 70f
1:30 6 8 mph 1012.8mb 73f 69f
1:24 6 8 mph 1012.9mb 73f 69f
1:18 6 8 mph - 73f 69f
1:12 6
mph
- 73f 69f
1:06 5 6 mph - 73f 69f
1:00 5 6 mph 1013.1mb 73f 70f
12:54 3
mph
1013.1mb 73f 70f
12:48 2 3 mph 1013.2mb 73f 69f
12:42 1 3 mph 1013.2mb 73f 69f
12:36 1 2 mph 1013.2mb 73f 69f
12:30 1 2 mph 1013.2mb 73f 69f
12:24 1 2 mph 1013.2mb 73f 69f
12:18  -  1 mph 1013.2mb 73f 69f
12:12 2 5 mph 1013.1mb 73f 69f
12:06 3 5 mph 1013mb 73f 69f
12:00 2
mph
- 73f 69f
lun 08/31 11:54 1 2 mph - 73f 69f
11:48  -  2 mph 1013mb 73f 69f
11:42 2 3 mph 1012.9mb 73f 69f
11:36 2 3 mph 1012.9mb 73f 69f
11:30 2 5 mph 1012.9mb 73f 69f
11:24 3 5 mph 1012.8mb 73f 69f
11:18 2 3 mph 1012.8mb 73f 69f
11:12 3 5 mph 1012.8mb 73f 69f
11:06 5 6 mph 1012.9mb 73f 70f
11:00 5 6 mph 1012.9mb 73f 69f
10:54 5 6 mph 1012.9mb 73f 70f
10:48 6 7 mph 1012.8mb 73f 70f
10:42 6 7 mph 1012.8mb 73f 70f
10:36 6 7 mph 1012.7mb 73f 70f
10:30 6 7 mph 1012.6mb 73f 69f
10:24 6 7 mph 1012.6mb 73f 70f
10:18 6 7 mph 1012.6mb 73f 70f
10:12 6 7 mph 1012.6mb 73f 70f
10:06 6 7 mph 1012.5mb 73f 70f
10:00 6 7 mph 1012.6mb 73f -
9:54 6 7 mph 1012.6mb 73f -
9:48 6 7 mph 1012.5mb 73f 70f
9:42 7 8 mph 1012.4mb 73f 70f
9:36 7
mph
1012.4mb 74f 70f
9:30 7 8 mph 1012.3mb 74f 70f
9:24 6 7 mph 1012.3mb 74f 70f
9:18 6 7 mph 1012.2mb 74f 71f
9:12 6 7 mph 1012.1mb 74f 70f
9:06 7
mph
1012mb 74f 70f
9:00 6 7 mph - 74f 70f
8:54 7
mph
- 74f 70f
8:48 7 8 mph 1011.8mb 74f 70f
8:42 7 8 mph 1011.7mb 74f 70f
8:36 8 9 mph 1011.6mb 74f 70f
8:30 8 9 mph 1011.5mb 74f 70f
8:24 8 10 mph 1011.4mb 74f 70f
8:18 9 10 mph 1011.3mb 74f 70f
8:12 9 11 mph 1011.2mb 74f 70f
8:06 10 11 mph 1011.2mb 74f 70f
8:00 9 11 mph 1011.1mb 74f 70f
7:54 10 11 mph 1011mb 74f 70f
7:48 11 13 mph 1010.8mb 74f 70f
7:42 11 13 mph 1010.8mb 74f 70f
7:36 11 14 mph 1010.7mb 74f 70f
7:30 13
mph
1010.7mb 74f 70f
7:24 13
mph
1010.7mb 74f 70f
7:18 10 13 mph - 74f 71f
7:12 10 11 mph - 74f 71f
7:06 11
mph
- 74f 71f
7:00 11 13 mph 1010.7mb 74f 71f
6:54 10 11 mph 1010.8mb 74f 71f
6:48 11 13 mph 1010.8mb 74f 71f
6:42 9 10 mph 1010.8mb 73f 71f
6:36 10 11 mph 1010.8mb 73f 71f
6:30 10 11 mph 1010.8mb 73f -
6:24 10 11 mph 1010.8mb 73f -
6:18 10 11 mph 1010.9mb 73f -
6:12 9 11 mph 1010.8mb 73f -
6:06 9 10 mph 1010.9mb 73f -
6:00 8 9 mph 1010.9mb 73f 72f
5:54 8 10 mph 1011mb 73f 72f
5:48 9 10 mph 1011mb 73f 71f
5:42 9 10 mph 1011mb 73f 71f
5:36 9 10 mph 1011mb 74f 71f
5:30 8 10 mph 1011mb 73f 71f
5:24 8 10 mph 1011.1mb 74f 71f
5:18 10 11 mph 1011.2mb 74f 71f
5:12 10 11 mph 1011.2mb 74f 71f
5:06 9 10 mph 1011.3mb 74f 71f
5:00 9 10 mph 1011.3mb 74f 71f
4:54 9 10 mph 1011.4mb 74f 71f
4:48 10 11 mph 1011.5mb 74f 71f
4:42 10 11 mph 1011.5mb 74f 71f
4:36 9 11 mph 1011.5mb 74f 71f
4:00 9 11 mph 1011.6mb 74f 71f
3:54 10
mph
1011.6mb 74f 70f
3:48 10
mph
1011.7mb 74f 70f
3:42 9 10 mph 1011.7mb 74f 71f
3:36 9 11 mph 1011.8mb 74f 71f
3:30 9 11 mph 1011.9mb 74f 71f
3:24 9 10 mph 1012mb 74f 70f
3:18 10 11 mph 1012.1mb 74f 70f
3:12 10 11 mph 1012mb 74f 70f
3:06 9 11 mph 1012.1mb 74f 70f
3:00 10 11 mph 1012.2mb 74f 70f
2:54 10 11 mph 1012.3mb 74f 70f
2:48 10 11 mph 1012.4mb 74f 70f
2:42 10 11 mph 1012.4mb 74f 71f
2:36 9 11 mph 1012.5mb 74f 71f
2:30 10 11 mph 1012.5mb 74f 70f
2:24 9 10 mph 1012.5mb 74f 71f
2:18 9 10 mph 1012.5mb 74f 70f
2:12 10 11 mph 1012.6mb 74f 70f
2:06 10 11 mph 1012.7mb 74f 70f
2:00 9 10 mph 1012.7mb 73f 70f
1:54 10 11 mph 1012.7mb 73f 70f
1:48 9 10 mph 1012.8mb 73f 71f
1:42 9 10 mph 1012.8mb 73f 70f
1:36 9 10 mph 1012.9mb 73f 70f
1:30 9 11 mph 1013mb 74f 70f
1:24 10 11 mph 1013.1mb 73f 70f
1:18 10 11 mph 1013.1mb 73f 70f
1:12 10 11 mph 1013.2mb 73f 70f
1:06 10 11 mph 1013.2mb 73f 70f
1:00 10 11 mph 1013.3mb 73f 70f
12:54 11 13 mph 1013.3mb 73f 70f
12:48 10 11 mph 1013.3mb 73f 69f
12:42 10 11 mph 1013.3mb 73f 70f
12:36 11 13 mph 1013.3mb 73f 69f
12:30 10 11 mph 1013.3mb 73f 69f
12:24 11
mph
1013.3mb 73f 69f
12:18 11 13 mph 1013.3mb 73f 70f
12:12 11 13 mph 1013.3mb 73f 69f
12:06 10 14 mph 1013.4mb 73f 69f
12:00 11 13 mph 1013.4mb 73f 69f
11:54 11 13 mph 1013.4mb 73f 69f
11:48 10 11 mph 1013.5mb 73f 70f
11:42 11 13 mph 1013.5mb 73f 69f
11:36 10 11 mph 1013.5mb 73f 70f
11:30 10 11 mph 1013.5mb 73f 70f
11:24 10 11 mph 1013.5mb 73f 70f
11:18 11 13 mph 1013.5mb 73f 70f
11:12 11
mph
1013.5mb 73f 71f
11:06 9 11 mph 1013.5mb 73f 71f
11:00 9 10 mph 1013.5mb 73f 71f
10:54 10 11 mph 1013.5mb 73f 71f
10:48 11
mph
1013.5mb 73f 71f
10:42 10 11 mph 1013.5mb 73f 71f
10:36 10 11 mph 1013.4mb 73f 71f
10:30 10 11 mph 1013.3mb 73f 71f
10:24 10
mph
1013.3mb 73f 71f
10:18 9 10 mph 1013.3mb 73f 71f
10:12 9 10 mph 1013.3mb 73f 71f
10:06 9 10 mph 1013.3mb 72f 71f
10:00 7 8 mph 1013.2mb 72f 71f
9:54 8
mph
1013.2mb 72f 71f
9:48 7 8 mph 1013.1mb 72f 71f
9:42 8
mph
1013mb 72f 71f
9:36 8 9 mph 1013mb 72f 71f
9:30 7 8 mph 1013mb 72f 71f
9:24 6 8 mph 1012.9mb 72f 71f
9:18 7 9 mph 1012.9mb 72f 71f
9:12 8 9 mph 1012.8mb 72f 71f
9:06 7 8 mph 1012.8mb 72f 71f
9:00 5 6 mph 1012.8mb 72f 72f
8:54 2 6 mph 1012.7mb 72f 72f
8:48 6 9 mph 1012.7mb 72f 72f
7:54 3 7 mph 1012.5mb 71f 71f
7:48 3 6 mph 1012.4mb 71f 70f
6:54 3 5 mph 1011.7mb 71f 70f
6:48 3 6 mph 1011.7mb 70f 70f
5:54 6 7 mph 1011.5mb 69f 69f
5:48 6 7 mph 1011.4mb 69f 69f
4:54 3 5 mph 1011.2mb 70f 69f
4:48 3 7 mph 1011.1mb 70f 70f
3:54 3 6 mph 1010.6mb 70f 69f
3:48 3 5 mph 1010.5mb 70f 69f
2:54 3
mph
1010.6mb 72f 69f
2:48 2
mph
1010.7mb 72f 69f